Time;durP1;ratioP1;P1;durP2;ratioP2;P2;SDS_P1;SDS_P2;PMS_P1;PMS_P2;Temp;Humidity;BMP_temperature;BMP_pressure;BME280_temperature;BME280_humidity;BME280_pressure;Samples;Min_cycle;Max_cycle;Signal;HPM_P1;HPM_P2
2021/12/06 00:01:30;;;;;;;23.95;11.63;;;2.60;99.90;;;;;;5012269;23;20037;-74
2021/12/06 00:04:09;;;;;;;24.92;11.07;;;2.60;99.90;;;;;;5000669;28;20139;-74
2021/12/06 00:06:41;;;;;;;22.33;11.20;;;2.60;99.90;;;;;;4968939;28;20198;-74
2021/12/06 00:09:10;;;;;;;20.35;9.65;;;2.70;99.90;;;;;;4996448;28;20321;-74
2021/12/06 00:11:36;;;;;;;21.23;11.23;;;2.60;99.90;;;;;;4988930;28;20534;-74
2021/12/06 00:14:03;;;;;;;21.10;10.27;;;2.70;99.90;;;;;;4984260;28;20080;-75
2021/12/06 00:16:29;;;;;;;23.25;10.52;;;2.70;99.90;;;;;;5011642;28;20183;-74
2021/12/06 00:18:55;;;;;;;20.65;10.85;;;2.70;99.90;;;;;;5008418;28;20038;-74
2021/12/06 00:21:22;;;;;;;21.10;9.70;;;2.70;99.90;;;;;;4988339;28;20152;-74
2021/12/06 00:23:49;;;;;;;24.73;11.27;;;2.70;99.90;;;;;;4985698;28;20053;-74
2021/12/06 00:26:17;;;;;;;21.73;11.15;;;2.70;99.90;;;;;;5010905;28;20487;-74
2021/12/06 00:28:45;;;;;;;23.42;11.85;;;2.80;99.90;;;;;;4987392;28;20165;-75
2021/12/06 00:31:13;;;;;;;19.75;11.40;;;2.80;99.90;;;;;;5003762;28;20037;-75
2021/12/06 00:33:39;;;;;;;25.33;12.30;;;2.70;99.90;;;;;;4989648;28;20123;-75
2021/12/06 00:36:08;;;;;;;23.48;10.85;;;2.80;99.90;;;;;;4973064;28;20053;-75
2021/12/06 00:38:39;;;;;;;24.35;11.95;;;2.70;99.90;;;;;;4996216;28;20113;-74
2021/12/06 00:41:05;;;;;;;23.00;12.77;;;2.70;99.90;;;;;;4982776;28;20269;-74
2021/12/06 00:43:31;;;;;;;26.17;12.47;;;2.80;99.90;;;;;;5004249;28;20038;-74
2021/12/06 00:45:56;;;;;;;30.45;15.23;;;2.70;99.90;;;;;;4992967;28;20077;-74
2021/12/06 00:48:22;;;;;;;28.27;15.13;;;2.80;99.90;;;;;;4972304;28;20541;-75
2021/12/06 00:50:48;;;;;;;27.00;14.07;;;2.80;99.90;;;;;;4988486;28;20435;-75
2021/12/06 00:53:14;;;;;;;32.30;15.00;;;2.80;99.90;;;;;;4978933;28;20041;-75
2021/12/06 00:55:40;;;;;;;28.88;15.00;;;2.80;99.90;;;;;;5013372;28;20042;-75
2021/12/06 00:58:06;;;;;;;30.67;14.63;;;2.80;99.90;;;;;;5010814;28;20045;-74
2021/12/06 01:00:37;;;;;;;30.75;14.80;;;2.80;99.90;;;;;;4991257;28;20124;-75
2021/12/06 01:03:07;;;;;;;30.40;15.68;;;2.80;99.90;;;;;;4993182;28;20780;-75
2021/12/06 01:05:32;;;;;;;36.30;17.10;;;2.80;99.90;;;;;;4987680;28;20042;-75
2021/12/06 01:07:58;;;;;;;32.53;16.10;;;2.80;99.90;;;;;;5005323;28;20137;-74
2021/12/06 01:10:27;;;;;;;31.37;15.73;;;2.80;99.90;;;;;;5001980;28;20065;-74
2021/12/06 01:12:53;;;;;;;34.47;16.60;;;2.80;99.90;;;;;;4987571;28;20152;-74
2021/12/06 01:15:19;;;;;;;28.50;15.02;;;2.70;99.90;;;;;;5002436;28;20045;-74
2021/12/06 01:17:46;;;;;;;32.22;15.35;;;2.80;99.90;;;;;;4986409;28;20053;-75
2021/12/06 01:20:17;;;;;;;;;;;2.70;99.90;;;;;;4988097;28;20759;-74
2021/12/06 01:25:39;;;;;;;33.78;14.77;;;2.70;99.90;;;;;;4979550;28;20081;-75
2021/12/06 01:41:28;;;;;;;34.72;16.50;;;2.80;99.90;;;;;;4989177;28;20077;-78
2021/12/06 01:44:23;;;;;;;;;;;2.80;99.90;;;;;;4981538;28;20505;-75
2021/12/06 01:46:56;;;;;;;31.98;13.25;;;2.80;99.90;;;;;;4985824;28;19917;-76
2021/12/06 01:49:24;;;;;;;33.58;15.98;;;2.80;99.90;;;;;;4992206;28;20129;-73
2021/12/06 01:51:52;;;;;;;33.65;14.65;;;2.80;99.90;;;;;;4984899;28;20050;-75
2021/12/06 01:54:18;;;;;;;35.85;16.65;;;2.80;99.90;;;;;;5006604;28;20041;-75
2021/12/06 01:56:44;;;;;;;35.50;15.88;;;2.80;99.90;;;;;;4960349;28;20045;-75
2021/12/06 01:59:10;;;;;;;33.95;15.60;;;2.80;99.90;;;;;;4982304;28;20049;-74
2021/12/06 02:01:36;;;;;;;32.60;15.68;;;2.80;99.90;;;;;;4971943;28;20058;-74
2021/12/06 02:04:03;;;;;;;33.70;15.55;;;2.80;99.90;;;;;;4988024;28;20434;-76
2021/12/06 02:06:29;;;;;;;31.73;15.48;;;2.80;99.90;;;;;;4974045;28;20124;-75
2021/12/06 02:08:55;;;;;;;32.00;15.33;;;2.80;99.90;;;;;;5009363;28;20125;-78
2021/12/06 02:11:24;;;;;;;39.10;16.47;;;2.80;99.90;;;;;;4990393;28;20605;-78
2021/12/06 02:13:58;;;;;;;35.10;15.68;;;2.80;99.90;;;;;;4971170;28;20222;-76
2021/12/06 02:16:33;;;;;;;38.20;16.00;;;2.80;99.90;;;;;;4985978;28;20053;-76
2021/12/06 02:19:04;;;;;;;36.00;16.52;;;2.80;99.90;;;;;;4999185;28;20049;-75
2021/12/06 02:21:33;;;;;;;35.00;15.10;;;2.80;99.90;;;;;;4985530;28;20399;-74
2021/12/06 02:24:03;;;;;;;38.38;15.98;;;2.80;99.90;;;;;;5004943;28;20486;-74
2021/12/06 02:26:28;;;;;;;39.13;16.25;;;2.80;99.90;;;;;;4982310;28;20049;-73
2021/12/06 02:28:54;;;;;;;37.47;17.00;;;2.80;99.90;;;;;;4989815;28;20049;-74
2021/12/06 02:31:23;;;;;;;34.83;16.33;;;2.90;99.90;;;;;;4983591;28;20110;-73
2021/12/06 02:33:49;;;;;;;34.30;15.65;;;2.80;99.90;;;;;;4987307;28;20305;-73
2021/12/06 02:36:20;;;;;;;38.63;17.10;;;2.90;99.90;;;;;;4981791;28;20180;-73
2021/12/06 02:38:46;;;;;;;39.72;15.43;;;2.90;99.90;;;;;;4987812;28;20297;-74
2021/12/06 02:41:14;;;;;;;35.97;15.65;;;2.80;99.90;;;;;;4993194;28;20046;-74
2021/12/06 02:43:41;;;;;;;34.92;15.70;;;2.80;99.90;;;;;;5003007;28;20096;-74
2021/12/06 02:46:08;;;;;;;33.38;15.75;;;2.80;99.90;;;;;;4976798;28;20042;-74
2021/12/06 02:48:34;;;;;;;36.20;16.10;;;2.90;99.90;;;;;;5004564;28;20330;-74
2021/12/06 02:51:04;;;;;;;36.78;16.00;;;2.80;99.90;;;;;;4987850;28;20049;-74
2021/12/06 02:53:31;;;;;;;35.88;15.98;;;2.80;99.90;;;;;;4978468;28;20050;-75
2021/12/06 02:56:00;;;;;;;36.65;16.05;;;2.80;99.90;;;;;;4981026;28;20411;-75
2021/12/06 03:01:12;;;;;;;37.40;17.13;;;2.80;99.90;;;;;;4986599;28;20115;-76
2021/12/06 03:03:38;;;;;;;39.75;16.25;;;2.80;99.90;;;;;;5012304;28;20053;-77
2021/12/06 03:06:04;;;;;;;37.35;16.00;;;2.80;99.90;;;;;;4973535;28;20058;-76
2021/12/06 03:08:47;;;;;;;40.17;18.00;;;2.80;99.90;;;;;;4991818;28;20048;-74
2021/12/06 03:11:20;;;;;;;42.92;17.05;;;2.80;99.90;;;;;;4988067;28;20446;-75
2021/12/06 03:13:46;;;;;;;38.00;17.85;;;2.80;99.90;;;;;;4968995;28;20054;-75
2021/12/06 03:16:12;;;;;;;45.58;19.85;;;2.80;99.90;;;;;;5005218;28;20041;-75
2021/12/06 03:18:41;;;;;;;42.63;18.75;;;2.80;99.90;;;;;;4987856;28;20042;-74
2021/12/06 03:21:06;;;;;;;45.85;19.35;;;2.80;99.90;;;;;;4982138;28;20409;-75
2021/12/06 03:23:32;;;;;;;40.03;17.53;;;2.90;99.90;;;;;;4989350;28;20137;-73
2021/12/06 03:25:58;;;;;;;41.50;17.70;;;2.80;99.90;;;;;;4984791;28;20054;-73
2021/12/06 03:28:23;;;;;;;38.40;16.97;;;2.90;99.90;;;;;;5010980;28;20335;-74
2021/12/06 03:30:49;;;;;;;36.37;16.33;;;2.90;99.90;;;;;;4990794;28;20062;-74
2021/12/06 03:33:14;;;;;;;40.53;17.60;;;2.90;99.90;;;;;;4992509;28;20074;-74
2021/12/06 03:35:40;;;;;;;42.33;18.40;;;2.80;99.90;;;;;;4985595;28;20128;-75
2021/12/06 03:38:06;;;;;;;43.10;17.97;;;2.90;99.90;;;;;;4960397;28;20234;-74
2021/12/06 03:40:31;;;;;;;41.53;17.37;;;2.90;99.90;;;;;;4989550;28;20538;-75
2021/12/06 03:42:57;;;;;;;43.43;18.50;;;2.90;99.90;;;;;;4982298;28;20121;-73
2021/12/06 03:45:26;;;;;;;41.47;17.63;;;2.90;99.90;;;;;;4977407;28;20456;-74
2021/12/06 03:47:53;;;;;;;42.28;17.80;;;2.90;99.90;;;;;;4995040;28;20347;-74
2021/12/06 03:50:19;;;;;;;45.63;17.90;;;2.90;99.90;;;;;;4986171;28;20081;-74
2021/12/06 03:52:45;;;;;;;42.95;16.85;;;2.90;99.90;;;;;;4980816;28;20077;-75
2021/12/06 03:55:13;;;;;;;42.23;17.40;;;2.80;99.90;;;;;;4982436;28;20427;-74
2021/12/06 03:57:39;;;;;;;43.67;17.05;;;2.90;99.90;;;;;;4991815;28;20042;-74
2021/12/06 04:00:07;;;;;;;46.50;18.97;;;2.90;99.90;;;;;;4985477;28;20045;-74
2021/12/06 04:02:33;;;;;;;43.33;18.23;;;2.90;99.90;;;;;;4986306;28;20124;-74
2021/12/06 04:04:58;;;;;;;42.83;17.45;;;2.90;99.90;;;;;;5007086;28;20137;-74
2021/12/06 04:07:24;;;;;;;41.70;16.50;;;2.90;99.90;;;;;;4982882;28;20053;-74
2021/12/06 04:09:50;;;;;;;40.90;17.27;;;2.90;99.90;;;;;;4984859;28;20068;-74
2021/12/06 04:12:16;;;;;;;41.70;18.33;;;2.90;99.90;;;;;;4988842;28;20057;-74
2021/12/06 04:17:50;;;;;;;42.88;17.10;;;2.90;99.90;;;;;;4974666;28;20053;-83
2021/12/06 04:20:18;;;;;;;43.95;18.85;;;2.90;99.90;;;;;;4961583;28;20042;-84
2021/12/06 04:22:44;;;;;;;42.33;17.45;;;2.90;99.90;;;;;;4971618;28;20403;-83
2021/12/06 04:25:19;;;;;;;46.33;18.23;;;2.90;99.90;;;;;;4970861;28;20041;-83
2021/12/06 04:27:54;;;;;;;47.13;18.05;;;2.90;99.90;;;;;;4955472;28;20112;-84
2021/12/06 04:30:24;;;;;;;43.50;17.73;;;2.90;99.90;;;;;;4987055;28;20038;-83
2021/12/06 04:32:52;;;;;;;40.60;17.08;;;2.90;99.90;;;;;;4981460;28;20129;-83
2021/12/06 04:35:22;;;;;;;42.45;18.23;;;2.90;99.90;;;;;;4958606;28;20042;-84
2021/12/06 04:38:24;;;;;;;;;;;;;;;;;;;;;
2021/12/06 04:41:11;;;;;;;40.17;18.83;;;3.00;99.90;;;;;;4904253;29;20056;-84
2021/12/06 04:43:36;;;;;;;41.27;17.90;;;3.00;99.90;;;;;;4970037;28;20547;-84
2021/12/06 04:46:02;;;;;;;37.43;15.97;;;2.90;99.90;;;;;;4960018;28;20511;-83
2021/12/06 04:48:28;;;;;;;39.67;16.70;;;2.90;99.90;;;;;;4976682;28;20033;-83
2021/12/06 04:50:53;;;;;;;39.40;16.60;;;2.90;99.90;;;;;;4977839;28;20045;-83
2021/12/06 04:53:23;;;;;;;43.03;16.63;;;2.90;99.90;;;;;;4973845;28;20571;-84
2021/12/06 04:55:55;;;;;;;37.65;16.33;;;2.90;99.90;;;;;;4965715;28;20045;-84
2021/12/06 04:58:28;;;;;;;38.70;16.85;;;2.90;99.90;;;;;;4976793;28;20093;-84
2021/12/06 05:01:01;;;;;;;41.20;17.70;;;2.90;99.90;;;;;;4962464;28;20034;-84
2021/12/06 05:03:28;;;;;;;42.97;17.80;;;2.90;99.90;;;;;;4970612;28;20049;-83
2021/12/06 05:05:58;;;;;;;39.55;16.55;;;2.90;99.90;;;;;;4967887;28;20113;-84
2021/12/06 05:08:37;;;;;;;32.47;14.98;;;3.00;99.90;;;;;;4956490;28;20057;-83
2021/12/06 05:11:05;;;;;;;37.13;16.48;;;3.00;99.90;;;;;;4973957;28;20065;-84
2021/12/06 05:13:31;;;;;;;37.35;15.15;;;3.00;99.90;;;;;;4974925;28;20046;-84
2021/12/06 05:15:57;;;;;;;;;;;2.90;99.90;;;;;;4960484;28;20049;-82
2021/12/06 05:18:23;;;;;;;35.15;15.02;;;2.90;99.90;;;;;;4982109;28;19926;-84
2021/12/06 05:20:48;;;;;;;41.27;16.70;;;2.90;99.90;;;;;;4975313;28;20038;-83
2021/12/06 05:23:14;;;;;;;35.23;16.73;;;3.00;99.90;;;;;;4958294;28;20042;-82
2021/12/06 05:25:40;;;;;;;40.17;16.77;;;2.90;99.90;;;;;;4975680;28;20042;-83
2021/12/06 05:28:06;;;;;;;35.20;15.87;;;2.90;99.90;;;;;;4968809;28;20124;-83
2021/12/06 05:30:34;;;;;;;37.70;15.97;;;2.90;99.90;;;;;;4955057;28;20296;-83
2021/12/06 05:33:01;;;;;;;34.90;15.73;;;2.90;99.90;;;;;;4969388;28;20334;-83
2021/12/06 05:35:27;;;;;;;40.83;16.15;;;3.00;99.90;;;;;;4980724;28;20089;-83
2021/12/06 05:37:55;;;;;;;37.00;16.97;;;3.00;99.90;;;;;;4978947;28;20042;-83
2021/12/06 05:40:25;;;;;;;40.13;16.23;;;2.90;99.90;;;;;;4986812;28;20558;-83
2021/12/06 05:42:51;;;;;;;38.67;16.33;;;3.00;99.90;;;;;;4975010;28;20038;-83
2021/12/06 05:45:21;;;;;;;37.70;15.93;;;2.90;99.90;;;;;;4976701;28;20042;-84
2021/12/06 05:47:47;;;;;;;38.22;15.88;;;3.00;99.90;;;;;;4973150;28;20053;-84
2021/12/06 05:50:13;;;;;;;33.43;15.13;;;2.90;99.90;;;;;;4961397;28;20030;-84
2021/12/06 05:52:39;;;;;;;;;;;3.00;99.90;;;;;;4982383;28;20045;-83
2021/12/06 05:55:07;;;;;;;38.40;15.82;;;2.90;99.90;;;;;;4977706;28;20300;-84
2021/12/06 05:57:33;;;;;;;41.60;17.10;;;3.00;99.90;;;;;;4955197;28;20049;-84
2021/12/06 05:59:59;;;;;;;41.85;17.45;;;3.00;99.90;;;;;;4955394;28;20038;-83
2021/12/06 06:02:25;;;;;;;35.80;15.47;;;2.90;99.90;;;;;;4970992;28;20047;-83
2021/12/06 06:04:50;;;;;;;42.50;17.27;;;2.90;99.90;;;;;;4974800;28;20046;-83
2021/12/06 06:07:16;;;;;;;41.60;17.47;;;2.90;99.90;;;;;;4953079;28;20046;-84
2021/12/06 06:09:42;;;;;;;39.40;17.43;;;3.00;99.90;;;;;;4963061;28;20411;-83
2021/12/06 06:12:07;;;;;;;43.33;16.53;;;2.90;99.90;;;;;;4948336;28;20038;-83
2021/12/06 06:14:33;;;;;;;41.65;16.77;;;2.90;99.90;;;;;;4956833;28;20034;-83
2021/12/06 06:17:08;;;;;;;39.27;16.73;;;3.00;99.90;;;;;;4959063;28;20041;-83
2021/12/06 06:19:36;;;;;;;42.35;17.23;;;3.00;99.90;;;;;;4961394;28;20169;-83
2021/12/06 06:22:02;;;;;;;41.58;17.05;;;2.90;99.90;;;;;;4971090;28;20035;-82
2021/12/06 06:24:27;;;;;;;47.63;18.23;;;3.00;99.90;;;;;;4960199;28;20044;-83
2021/12/06 06:26:53;;;;;;;42.27;16.90;;;3.00;99.90;;;;;;4970176;28;20042;-83
2021/12/06 06:29:19;;;;;;;41.00;16.30;;;2.90;99.90;;;;;;4991767;28;20058;-83
2021/12/06 06:31:44;;;;;;;40.17;16.17;;;2.90;99.90;;;;;;4949915;28;20141;-83
2021/12/06 06:34:11;;;;;;;43.60;16.43;;;2.90;99.90;;;;;;4956540;28;20092;-84
2021/12/06 06:36:36;;;;;;;44.47;17.92;;;2.90;99.90;;;;;;4973463;28;20042;-83
2021/12/06 06:39:05;;;;;;;41.53;16.67;;;2.90;99.90;;;;;;4975568;28;20571;-82
2021/12/06 06:41:31;;;;;;;48.13;17.75;;;2.90;99.90;;;;;;4957054;28;20042;-83
2021/12/06 06:43:58;;;;;;;41.70;17.73;;;2.90;99.90;;;;;;4976672;28;20528;-83
2021/12/06 06:46:23;;;;;;;44.28;17.67;;;2.90;99.90;;;;;;4975925;28;20038;-83
2021/12/06 06:48:52;;;;;;;44.90;18.60;;;2.90;99.90;;;;;;4955733;28;20112;-83
2021/12/06 06:51:18;;;;;;;42.67;17.35;;;2.90;99.90;;;;;;4973729;28;20101;-83
2021/12/06 06:53:44;;;;;;;42.20;16.60;;;2.90;99.90;;;;;;4978235;28;20423;-83
2021/12/06 06:56:09;;;;;;;46.43;19.20;;;2.90;99.90;;;;;;4976481;28;20047;-83
2021/12/06 06:58:35;;;;;;;53.30;17.27;;;2.90;99.90;;;;;;4968491;28;20092;-82
2021/12/06 07:01:00;;;;;;;49.83;17.83;;;2.90;99.90;;;;;;4974384;28;20597;-82
2021/12/06 07:03:31;;;;;;;44.00;17.23;;;3.00;99.90;;;;;;4969444;28;20046;-83
2021/12/06 07:05:58;;;;;;;40.85;17.75;;;3.00;99.90;;;;;;4972848;28;20042;-84
2021/12/06 07:08:24;;;;;;;47.47;18.15;;;3.00;99.90;;;;;;4969773;28;20042;-83
2021/12/06 07:10:51;;;;;;;51.47;17.53;;;3.00;99.90;;;;;;4972094;28;20038;-83
2021/12/06 07:13:17;;;;;;;48.03;18.20;;;3.00;99.90;;;;;;4971381;28;20042;-83
2021/12/06 07:15:42;;;;;;;38.57;16.40;;;3.00;99.90;;;;;;4956439;28;21292;-84
2021/12/06 07:18:10;;;;;;;37.87;18.70;;;3.00;99.90;;;;;;4976597;28;20041;-84
2021/12/06 07:20:36;;;;;;;42.00;16.77;;;3.00;99.90;;;;;;4968689;28;20505;-83
2021/12/06 07:23:03;;;;;;;47.30;19.30;;;3.00;99.90;;;;;;4978327;28;20049;-83
2021/12/06 07:25:29;;;;;;;48.67;18.33;;;3.00;99.90;;;;;;4984701;28;20047;-83
2021/12/06 07:27:57;;;;;;;41.78;17.17;;;3.00;99.90;;;;;;4950868;28;20049;-83
2021/12/06 07:30:23;;;;;;;42.45;18.60;;;3.00;99.90;;;;;;4969115;28;20624;-81
2021/12/06 07:32:51;;;;;;;42.47;18.37;;;3.10;99.90;;;;;;4958233;28;20046;-83
2021/12/06 07:35:17;;;;;;;43.63;17.85;;;3.10;99.90;;;;;;4974803;28;20049;-83
2021/12/06 07:37:43;;;;;;;47.23;19.33;;;3.10;99.90;;;;;;4963618;28;20621;-83
2021/12/06 07:40:10;;;;;;;41.20;17.35;;;3.10;99.90;;;;;;4956254;28;20053;-83
2021/12/06 07:42:36;;;;;;;42.85;16.85;;;3.10;99.90;;;;;;4976475;28;20193;-83
2021/12/06 07:45:05;;;;;;;46.92;18.58;;;3.10;99.90;;;;;;4979912;28;20041;-83
2021/12/06 07:47:31;;;;;;;48.70;19.00;;;3.00;99.90;;;;;;4973178;28;20513;-84
2021/12/06 07:49:56;;;;;;;46.37;19.47;;;3.10;99.90;;;;;;4961149;28;20044;-84
2021/12/06 07:52:22;;;;;;;48.07;18.50;;;3.10;99.90;;;;;;4992661;28;20144;-83
2021/12/06 07:54:47;;;;;;;41.93;17.80;;;3.10;99.90;;;;;;4959781;28;20072;-83
2021/12/06 07:57:13;;;;;;;44.97;17.43;;;3.10;99.90;;;;;;4968846;28;20034;-83
2021/12/06 07:59:40;;;;;;;47.03;19.50;;;3.10;99.90;;;;;;4976972;28;20165;-83
2021/12/06 08:02:08;;;;;;;46.53;18.80;;;3.10;99.90;;;;;;4985615;28;20099;-83
2021/12/06 08:04:33;;;;;;;56.05;19.42;;;3.10;99.90;;;;;;4976137;28;20050;-83
2021/12/06 08:06:59;;;;;;;44.20;18.47;;;3.10;99.90;;;;;;4960934;28;20117;-82
2021/12/06 08:09:25;;;;;;;40.13;17.10;;;3.10;99.90;;;;;;4979023;28;20122;-83
2021/12/06 08:11:51;;;;;;;45.57;16.13;;;3.10;99.90;;;;;;4973559;28;20041;-83
2021/12/06 08:14:17;;;;;;;40.73;17.93;;;3.10;99.90;;;;;;4959357;28;20034;-83
2021/12/06 08:16:46;;;;;;;46.70;17.52;;;3.10;99.90;;;;;;4997484;28;20057;-83
2021/12/06 08:19:12;;;;;;;47.00;16.90;;;3.20;99.90;;;;;;4981265;28;20031;-84
2021/12/06 08:21:38;;;;;;;;;;;3.20;99.90;;;;;;4979627;28;20089;-83
2021/12/06 08:24:05;;;;;;;52.50;18.92;;;3.20;99.90;;;;;;4983572;28;19922;-83
2021/12/06 08:26:34;;;;;;;49.22;17.25;;;3.20;99.90;;;;;;4963189;28;20049;-83
2021/12/06 08:29:02;;;;;;;44.10;17.85;;;3.20;99.90;;;;;;4971728;28;20026;-83
2021/12/06 08:31:29;;;;;;;55.25;20.15;;;3.20;99.90;;;;;;4974207;28;20081;-83
2021/12/06 08:33:55;;;;;;;;;;;3.20;99.90;;;;;;4960764;28;20058;-83
2021/12/06 08:36:22;;;;;;;47.03;17.92;;;3.20;99.90;;;;;;4980074;28;19944;-83
2021/12/06 08:38:48;;;;;;;45.85;18.48;;;3.20;99.90;;;;;;4964582;28;20496;-84
2021/12/06 08:41:17;;;;;;;48.38;18.92;;;3.20;99.90;;;;;;4975274;28;20615;-84
2021/12/06 08:43:44;;;;;;;49.88;19.02;;;3.20;99.90;;;;;;4973433;28;20042;-83
2021/12/06 08:46:26;;;;;;;52.05;19.55;;;3.30;99.90;;;;;;4972671;28;20034;-83
2021/12/06 08:48:53;;;;;;;52.83;18.92;;;3.30;99.90;;;;;;4953599;28;20050;-83
2021/12/06 08:51:27;;;;;;;;;;;3.30;99.90;;;;;;4977060;28;20034;-83
2021/12/06 08:53:53;;;;;;;55.42;18.55;;;3.30;99.90;;;;;;4988450;28;19929;-84
2021/12/06 08:56:19;;;;;;;53.20;19.83;;;3.30;99.90;;;;;;4963459;28;20062;-83
2021/12/06 08:58:45;;;;;;;61.42;20.50;;;3.30;99.90;;;;;;4972163;28;20042;-84
2021/12/06 09:01:11;;;;;;;55.30;20.48;;;3.30;99.90;;;;;;4968914;28;20026;-82
2021/12/06 09:03:37;;;;;;;54.20;20.52;;;3.40;99.90;;;;;;4958776;28;20042;-83
2021/12/06 09:06:09;;;;;;;55.35;21.58;;;3.30;99.90;;;;;;4964062;28;20058;-83
2021/12/06 09:08:36;;;;;;;54.38;19.30;;;3.40;99.90;;;;;;4956657;28;20062;-84
2021/12/06 09:11:04;;;;;;;51.90;19.35;;;3.40;99.90;;;;;;4959453;28;20066;-83
2021/12/06 09:13:30;;;;;;;55.75;20.80;;;3.40;99.90;;;;;;4975915;28;20042;-83
2021/12/06 09:15:59;;;;;;;60.93;18.93;;;3.40;99.90;;;;;;4956171;28;21249;-83
2021/12/06 09:18:25;;;;;;;55.97;19.65;;;3.40;99.90;;;;;;4973506;28;20041;-82
2021/12/06 09:20:52;;;;;;;61.92;20.38;;;3.40;99.90;;;;;;4974279;28;20512;-82
2021/12/06 09:23:18;;;;;;;50.40;18.95;;;3.40;99.90;;;;;;4956357;28;20050;-83
2021/12/06 09:25:45;;;;;;;58.70;19.70;;;3.50;99.90;;;;;;4982568;28;20041;-83
2021/12/06 09:28:12;;;;;;;51.47;19.00;;;3.50;99.90;;;;;;4981565;28;20039;-83
2021/12/06 09:30:38;;;;;;;50.28;17.73;;;3.50;99.90;;;;;;4987107;28;20038;-83
2021/12/06 09:33:07;;;;;;;46.55;16.85;;;3.50;99.90;;;;;;4970382;28;20128;-83
2021/12/06 09:35:41;;;;;;;44.20;17.52;;;3.50;99.90;;;;;;4958609;28;20039;-83
2021/12/06 09:38:08;;;;;;;46.67;17.90;;;3.50;99.90;;;;;;4964144;28;20515;-83
2021/12/06 09:40:37;;;;;;;46.42;17.80;;;3.50;99.90;;;;;;4972436;28;20036;-83
2021/12/06 09:43:06;;;;;;;42.63;17.38;;;3.50;99.90;;;;;;4956564;28;20042;-84
2021/12/06 09:45:32;;;;;;;46.40;18.05;;;3.60;99.90;;;;;;4975096;28;20045;-83
2021/12/06 09:48:00;;;;;;;51.50;17.52;;;3.60;99.90;;;;;;4971988;28;20046;-83
2021/12/06 09:50:33;;;;;;;53.00;19.88;;;3.60;99.90;;;;;;4975821;28;20499;-87
2021/12/06 09:53:02;;;;;;;48.00;17.77;;;3.50;99.90;;;;;;4971141;28;20042;-84
2021/12/06 09:55:29;;;;;;;49.75;17.73;;;3.60;99.90;;;;;;4970000;28;20583;-84
2021/12/06 09:57:56;;;;;;;46.92;17.52;;;3.50;99.90;;;;;;4990390;28;20096;-84
2021/12/06 10:00:24;;;;;;;54.42;21.30;;;3.50;99.90;;;;;;4988844;28;20045;-84
2021/12/06 10:02:51;;;;;;;51.95;19.42;;;3.50;99.90;;;;;;4972549;28;20542;-85
2021/12/06 10:05:17;;;;;;;53.58;18.83;;;3.50;99.90;;;;;;4978364;28;20042;-84
2021/12/06 10:07:42;;;;;;;48.40;19.03;;;3.50;99.90;;;;;;4956996;28;20048;-84
2021/12/06 10:10:10;;;;;;;56.90;20.53;;;3.50;99.90;;;;;;4960694;28;20046;-84
2021/12/06 10:12:36;;;;;;;47.83;19.48;;;3.40;99.90;;;;;;4975183;28;20527;-84
2021/12/06 10:15:04;;;;;;;52.17;19.60;;;3.40;99.90;;;;;;4974353;28;20042;-84
2021/12/06 10:17:32;;;;;;;55.03;19.05;;;3.40;99.90;;;;;;4971484;28;20129;-84
2021/12/06 10:20:00;;;;;;;54.20;19.30;;;3.40;99.90;;;;;;4965175;28;20030;-84
2021/12/06 10:22:27;;;;;;;47.05;17.92;;;3.50;99.90;;;;;;4970502;28;20058;-84
2021/12/06 10:24:57;;;;;;;45.60;17.60;;;3.50;99.90;;;;;;4957951;28;20797;-84
2021/12/06 10:27:25;;;;;;;50.90;18.33;;;3.50;99.90;;;;;;4974582;28;20193;-88
2021/12/06 10:30:04;;;;;;;51.20;18.95;;;3.50;99.90;;;;;;4956134;28;20038;-83
2021/12/06 10:32:36;;;;;;;44.78;18.38;;;3.50;99.90;;;;;;4965979;28;20417;-84
2021/12/06 10:35:11;;;;;;;50.53;18.42;;;3.50;99.90;;;;;;4982411;28;20078;-84
2021/12/06 10:37:45;;;;;;;44.55;18.35;;;3.50;99.90;;;;;;4986769;28;20117;-84
2021/12/06 10:40:18;;;;;;;47.42;18.23;;;3.50;99.90;;;;;;4985858;28;20034;-84
2021/12/06 10:42:46;;;;;;;42.88;16.70;;;3.50;99.90;;;;;;4978034;28;20050;-84
2021/12/06 10:45:18;;;;;;;43.30;16.33;;;3.50;99.90;;;;;;4973813;28;20034;-84
2021/12/06 10:48:18;;;;;;;39.63;16.38;;;3.50;99.90;;;;;;4988576;28;20047;-84
2021/12/06 10:50:54;;;;;;;41.55;16.40;;;3.50;99.90;;;;;;4972638;28;20065;-84
2021/12/06 10:53:27;;;;;;;46.13;17.33;;;3.50;99.90;;;;;;4976059;28;20038;-84
2021/12/06 10:55:56;;;;;;;47.15;16.58;;;3.50;99.90;;;;;;4975602;28;20141;-84
2021/12/06 10:58:24;;;;;;;43.05;17.30;;;3.50;99.90;;;;;;4973217;28;20400;-84
2021/12/06 11:01:12;;;;;;;44.67;17.15;;;3.60;99.90;;;;;;4960315;28;20129;-84
2021/12/06 11:03:44;;;;;;;51.35;18.85;;;3.60;99.90;;;;;;4969840;28;20069;-84
2021/12/06 11:06:15;;;;;;;45.10;18.02;;;3.60;99.90;;;;;;4957342;28;20042;-84
2021/12/06 11:08:42;;;;;;;44.70;17.55;;;3.60;99.90;;;;;;4975974;28;20045;-84
2021/12/06 11:11:12;;;;;;;42.78;17.88;;;3.70;99.90;;;;;;4980498;28;20042;-84
2021/12/06 11:13:44;;;;;;;42.38;16.35;;;3.70;99.90;;;;;;4973401;28;20058;-85
2021/12/06 11:16:21;;;;;;;36.88;14.80;;;3.60;99.90;;;;;;4980264;28;20070;-84
2021/12/06 11:18:50;;;;;;;33.20;14.73;;;3.70;99.90;;;;;;4994610;28;20121;-84
2021/12/06 11:21:20;;;;;;;44.42;15.10;;;3.70;99.90;;;;;;4960906;28;20294;-84
2021/12/06 11:23:58;;;;;;;32.95;14.45;;;3.60;99.90;;;;;;4968836;28;20185;-84
2021/12/06 11:26:24;;;;;;;37.47;15.00;;;3.60;99.90;;;;;;4984255;28;20070;-86
2021/12/06 11:28:49;;;;;;;32.90;12.20;;;3.60;99.90;;;;;;4974409;28;20053;-84
2021/12/06 11:31:18;;;;;;;34.77;13.80;;;3.60;99.90;;;;;;4959653;28;20529;-84
2021/12/06 11:33:57;;;;;;;34.28;13.23;;;3.70;99.90;;;;;;4972855;28;20530;-85
2021/12/06 11:36:23;;;;;;;30.05;13.52;;;3.70;99.90;;;;;;4956734;28;20512;-85
2021/12/06 11:39:19;;;;;;;34.90;14.57;;;3.70;99.90;;;;;;4959742;28;20057;-84
2021/12/06 11:41:49;;;;;;;31.98;14.23;;;3.60;99.90;;;;;;4949350;28;20137;-84
2021/12/06 11:44:26;;;;;;;33.75;13.77;;;3.60;99.90;;;;;;4977770;28;20050;-84
2021/12/06 11:47:03;;;;;;;39.35;15.13;;;3.60;99.90;;;;;;4992504;28;20045;-84
2021/12/06 11:49:33;;;;;;;35.05;15.63;;;3.60;99.90;;;;;;4988561;28;20101;-84
2021/12/06 11:51:59;;;;;;;38.00;14.77;;;3.60;99.90;;;;;;4961780;28;20100;-84
2021/12/06 11:54:28;;;;;;;36.47;15.20;;;3.60;99.90;;;;;;4985772;28;20042;-84
2021/12/06 11:56:54;;;;;;;41.88;15.45;;;3.60;99.90;;;;;;4975769;28;20038;-84
2021/12/06 11:59:20;;;;;;;35.67;15.07;;;3.60;99.90;;;;;;4962596;28;20105;-84
2021/12/06 12:01:55;;;;;;;43.22;14.75;;;3.60;99.90;;;;;;4971395;28;20528;-84
2021/12/06 12:04:25;;;;;;;38.05;15.93;;;3.60;99.90;;;;;;4975202;28;20129;-84
2021/12/06 12:07:01;;;;;;;41.28;16.27;;;3.60;99.90;;;;;;4986392;28;20038;-84
2021/12/06 12:09:37;;;;;;;48.47;16.95;;;3.50;99.90;;;;;;4947600;28;20831;-84
2021/12/06 12:12:24;;;;;;;46.00;17.17;;;3.60;99.90;;;;;;4963743;28;20078;-83
2021/12/06 12:14:57;;;;;;;51.45;19.02;;;3.50;99.90;;;;;;4977896;28;21140;-83
2021/12/06 12:17:25;;;;;;;43.35;16.42;;;3.50;99.90;;;;;;4965647;28;20517;-84
2021/12/06 12:19:53;;;;;;;49.25;18.38;;;3.60;99.90;;;;;;4994417;28;20034;-84
2021/12/06 12:22:20;;;;;;;47.78;18.00;;;3.60;99.90;;;;;;4973642;28;20101;-84
2021/12/06 12:24:49;;;;;;;;;;;3.60;99.90;;;;;;4965906;28;20037;-83
2021/12/06 12:27:26;;;;;;;46.90;18.10;;;3.60;99.90;;;;;;4972203;28;20311;-83
2021/12/06 12:29:54;;;;;;;55.20;19.40;;;3.60;99.90;;;;;;4977448;28;20038;-83
2021/12/06 12:32:22;;;;;;;56.38;18.40;;;3.60;99.90;;;;;;4994581;28;20069;-84
2021/12/06 12:34:50;;;;;;;50.35;19.23;;;3.60;99.90;;;;;;4982730;28;20053;-84
2021/12/06 12:37:18;;;;;;;46.30;17.85;;;3.60;99.90;;;;;;5006995;28;20057;-82
2021/12/06 12:40:01;;;;;;;45.78;19.15;;;3.70;99.90;;;;;;4953789;28;20058;-84
2021/12/06 12:42:27;;;;;;;49.13;18.52;;;3.70;99.90;;;;;;4987971;28;20038;-83
2021/12/06 12:44:59;;;;;;;46.40;17.75;;;3.70;99.90;;;;;;4957454;28;20121;-84
2021/12/06 12:47:28;;;;;;;50.00;17.55;;;3.80;99.90;;;;;;4973954;28;20038;-84
2021/12/06 12:49:58;;;;;;;44.35;18.15;;;3.70;99.90;;;;;;4956496;28;20133;-84
2021/12/06 12:55:25;;;;;;;46.08;17.58;;;3.80;99.90;;;;;;4994034;28;20503;-75
2021/12/06 12:58:11;;;;;;;52.92;19.02;;;3.80;99.90;;;;;;4970523;28;20042;-74
2021/12/06 13:01:09;;;;;;;42.95;18.17;;;3.80;99.90;;;;;;4966410;28;20077;-74
2021/12/06 13:03:55;;;;;;;50.25;19.40;;;3.90;99.90;;;;;;4976649;28;20565;-74
2021/12/06 13:06:36;;;;;;;44.33;18.00;;;3.90;99.90;;;;;;4989025;28;20048;-74
2021/12/06 13:09:05;;;;;;;42.80;17.17;;;3.90;99.90;;;;;;4996125;28;20041;-75
2021/12/06 13:11:56;;;;;;;48.22;18.15;;;3.90;99.90;;;;;;4984491;28;20379;-74
2021/12/06 13:14:44;;;;;;;50.75;20.02;;;4.00;99.90;;;;;;5005739;28;20049;-74